sensor_id;sensor_type;location;lat;lon;timestamp;temperature;humidity
46900;DHT22;32647;49.382;7.078;2022-08-21T00:01:48;14.10;89.50
46900;DHT22;32647;49.382;7.078;2022-08-21T00:04:35;14.20;76.60
46900;DHT22;32647;49.382;7.078;2022-08-21T00:07:21;14.20;85.70
46900;DHT22;32647;49.382;7.078;2022-08-21T00:10:07;14.10;82.40
46900;DHT22;32647;49.382;7.078;2022-08-21T00:12:54;14.00;91.30
46900;DHT22;32647;49.382;7.078;2022-08-21T00:15:41;13.90;94.30
46900;DHT22;32647;49.382;7.078;2022-08-21T00:18:27;13.90;96.80
46900;DHT22;32647;49.382;7.078;2022-08-21T00:21:14;13.90;94.90
46900;DHT22;32647;49.382;7.078;2022-08-21T00:24:00;13.80;94.70
46900;DHT22;32647;49.382;7.078;2022-08-21T00:26:46;13.80;96.30
46900;DHT22;32647;49.382;7.078;2022-08-21T00:29:33;13.70;98.00
46900;DHT22;32647;49.382;7.078;2022-08-21T00:32:26;13.70;96.70
46900;DHT22;32647;49.382;7.078;2022-08-21T00:35:16;13.60;99.90
46900;DHT22;32647;49.382;7.078;2022-08-21T00:38:04;13.60;99.90
46900;DHT22;32647;49.382;7.078;2022-08-21T00:40:54;13.40;99.90
46900;DHT22;32647;49.382;7.078;2022-08-21T00:43:41;13.40;99.90
46900;DHT22;32647;49.382;7.078;2022-08-21T00:46:27;13.40;99.90
46900;DHT22;32647;49.382;7.078;2022-08-21T00:49:13;13.40;99.90
46900;DHT22;32647;49.382;7.078;2022-08-21T00:52:00;13.30;99.90
46900;DHT22;32647;49.382;7.078;2022-08-21T00:54:48;13.20;99.90
46900;DHT22;32647;49.382;7.078;2022-08-21T00:57:45;13.30;99.90
46900;DHT22;32647;49.382;7.078;2022-08-21T01:00:35;13.30;99.90
46900;DHT22;32647;49.382;7.078;2022-08-21T01:03:24;13.20;99.90
46900;DHT22;32647;49.382;7.078;2022-08-21T01:06:11;13.00;99.90
46900;DHT22;32647;49.382;7.078;2022-08-21T01:08:57;13.00;99.90
46900;DHT22;32647;49.382;7.078;2022-08-21T01:11:44;12.90;99.90
46900;DHT22;32647;49.382;7.078;2022-08-21T01:14:31;12.90;99.90
46900;DHT22;32647;49.382;7.078;2022-08-21T01:17:19;12.90;99.90
46900;DHT22;32647;49.382;7.078;2022-08-21T01:20:09;12.90;99.90
46900;DHT22;32647;49.382;7.078;2022-08-21T01:22:56;13.00;99.90
46900;DHT22;32647;49.382;7.078;2022-08-21T01:25:42;12.90;99.90
46900;DHT22;32647;49.382;7.078;2022-08-21T01:28:31;12.90;99.90
46900;DHT22;32647;49.382;7.078;2022-08-21T01:31:20;12.80;99.90
46900;DHT22;32647;49.382;7.078;2022-08-21T01:34:10;12.80;99.90
46900;DHT22;32647;49.382;7.078;2022-08-21T01:36:56;12.80;99.90
46900;DHT22;32647;49.382;7.078;2022-08-21T01:39:43;12.80;99.90
46900;DHT22;32647;49.382;7.078;2022-08-21T01:42:29;12.80;99.90
46900;DHT22;32647;49.382;7.078;2022-08-21T01:45:15;12.80;99.90
46900;DHT22;32647;49.382;7.078;2022-08-21T01:48:02;12.70;99.90
46900;DHT22;32647;49.382;7.078;2022-08-21T01:50:48;12.60;99.90
46900;DHT22;32647;49.382;7.078;2022-08-21T01:53:35;12.60;99.90
46900;DHT22;32647;49.382;7.078;2022-08-21T01:56:22;12.60;99.90
46900;DHT22;32647;49.382;7.078;2022-08-21T01:59:09;12.60;99.90
46900;DHT22;32647;49.382;7.078;2022-08-21T02:01:55;12.60;99.90
46900;DHT22;32647;49.382;7.078;2022-08-21T02:04:41;12.60;99.90
46900;DHT22;32647;49.382;7.078;2022-08-21T02:07:27;12.50;99.90
46900;DHT22;32647;49.382;7.078;2022-08-21T02:10:16;12.40;99.90
46900;DHT22;32647;49.382;7.078;2022-08-21T02:13:02;12.40;99.90
46900;DHT22;32647;49.382;7.078;2022-08-21T02:15:49;12.40;99.90
46900;DHT22;32647;49.382;7.078;2022-08-21T02:18:35;12.40;99.90
46900;DHT22;32647;49.382;7.078;2022-08-21T02:21:21;12.30;99.90
46900;DHT22;32647;49.382;7.078;2022-08-21T02:24:08;12.30;99.90
46900;DHT22;32647;49.382;7.078;2022-08-21T02:26:54;12.20;99.90
46900;DHT22;32647;49.382;7.078;2022-08-21T02:29:40;12.30;99.90
46900;DHT22;32647;49.382;7.078;2022-08-21T02:32:26;12.20;99.90
46900;DHT22;32647;49.382;7.078;2022-08-21T02:35:12;12.20;99.90
46900;DHT22;32647;49.382;7.078;2022-08-21T02:38:01;12.10;99.90
46900;DHT22;32647;49.382;7.078;2022-08-21T02:40:49;12.10;99.90
46900;DHT22;32647;49.382;7.078;2022-08-21T02:43:35;12.00;99.90
46900;DHT22;32647;49.382;7.078;2022-08-21T02:46:21;12.00;99.90
46900;DHT22;32647;49.382;7.078;2022-08-21T02:49:08;12.00;99.90
46900;DHT22;32647;49.382;7.078;2022-08-21T02:51:53;12.00;99.90
46900;DHT22;32647;49.382;7.078;2022-08-21T02:54:39;12.00;99.90
46900;DHT22;32647;49.382;7.078;2022-08-21T02:57:26;11.90;99.90
46900;DHT22;32647;49.382;7.078;2022-08-21T03:00:13;11.90;99.90
46900;DHT22;32647;49.382;7.078;2022-08-21T03:02:59;11.90;99.90
46900;DHT22;32647;49.382;7.078;2022-08-21T03:05:45;11.90;99.90
46900;DHT22;32647;49.382;7.078;2022-08-21T03:08:31;11.80;99.90
46900;DHT22;32647;49.382;7.078;2022-08-21T03:11:17;11.80;99.90
46900;DHT22;32647;49.382;7.078;2022-08-21T03:14:04;11.70;99.90
46900;DHT22;32647;49.382;7.078;2022-08-21T03:16:50;11.70;99.90
46900;DHT22;32647;49.382;7.078;2022-08-21T03:19:36;11.70;99.90
46900;DHT22;32647;49.382;7.078;2022-08-21T03:22:22;11.70;99.90
46900;DHT22;32647;49.382;7.078;2022-08-21T03:25:09;11.70;99.90
46900;DHT22;32647;49.382;7.078;2022-08-21T03:27:56;11.60;99.90
46900;DHT22;32647;49.382;7.078;2022-08-21T03:30:43;11.60;99.90
46900;DHT22;32647;49.382;7.078;2022-08-21T03:33:30;11.60;99.90
46900;DHT22;32647;49.382;7.078;2022-08-21T03:36:16;11.50;99.90
46900;DHT22;32647;49.382;7.078;2022-08-21T03:39:03;11.40;99.90
46900;DHT22;32647;49.382;7.078;2022-08-21T03:41:49;11.40;99.90
46900;DHT22;32647;49.382;7.078;2022-08-21T03:44:35;11.50;99.90
46900;DHT22;32647;49.382;7.078;2022-08-21T03:47:21;11.40;99.90
46900;DHT22;32647;49.382;7.078;2022-08-21T03:50:08;11.40;99.90
46900;DHT22;32647;49.382;7.078;2022-08-21T03:52:54;11.30;99.90
46900;DHT22;32647;49.382;7.078;2022-08-21T03:55:41;11.30;99.90
46900;DHT22;32647;49.382;7.078;2022-08-21T03:58:28;11.20;99.90
46900;DHT22;32647;49.382;7.078;2022-08-21T04:01:14;11.20;99.90
46900;DHT22;32647;49.382;7.078;2022-08-21T04:04:00;11.20;99.90
46900;DHT22;32647;49.382;7.078;2022-08-21T04:06:46;11.20;99.90
46900;DHT22;32647;49.382;7.078;2022-08-21T04:09:32;11.20;99.90
46900;DHT22;32647;49.382;7.078;2022-08-21T04:12:19;11.20;99.90
46900;DHT22;32647;49.382;7.078;2022-08-21T04:15:06;11.10;99.90
46900;DHT22;32647;49.382;7.078;2022-08-21T04:17:52;11.20;99.90
46900;DHT22;32647;49.382;7.078;2022-08-21T04:20:39;11.20;99.90
46900;DHT22;32647;49.382;7.078;2022-08-21T04:23:26;11.20;99.90
46900;DHT22;32647;49.382;7.078;2022-08-21T04:26:12;11.10;99.90
46900;DHT22;32647;49.382;7.078;2022-08-21T04:28:58;11.10;99.90
46900;DHT22;32647;49.382;7.078;2022-08-21T04:31:44;11.10;99.90
46900;DHT22;32647;49.382;7.078;2022-08-21T04:34:30;11.10;99.90
46900;DHT22;32647;49.382;7.078;2022-08-21T04:37:16;11.00;99.90
46900;DHT22;32647;49.382;7.078;2022-08-21T04:40:04;11.00;99.90
46900;DHT22;32647;49.382;7.078;2022-08-21T04:42:54;11.00;99.90
46900;DHT22;32647;49.382;7.078;2022-08-21T04:45:44;11.00;99.90
46900;DHT22;32647;49.382;7.078;2022-08-21T04:48:30;11.00;99.90
46900;DHT22;32647;49.382;7.078;2022-08-21T04:51:21;11.00;99.90
46900;DHT22;32647;49.382;7.078;2022-08-21T04:54:12;11.00;99.90
46900;DHT22;32647;49.382;7.078;2022-08-21T04:57:02;11.00;99.90
46900;DHT22;32647;49.382;7.078;2022-08-21T04:59:51;10.90;99.90
46900;DHT22;32647;49.382;7.078;2022-08-21T05:02:37;11.00;99.90
46900;DHT22;32647;49.382;7.078;2022-08-21T05:05:24;10.90;99.90
46900;DHT22;32647;49.382;7.078;2022-08-21T05:08:12;10.90;99.90
46900;DHT22;32647;49.382;7.078;2022-08-21T05:11:00;11.00;99.90
46900;DHT22;32647;49.382;7.078;2022-08-21T05:13:46;11.00;99.90
46900;DHT22;32647;49.382;7.078;2022-08-21T05:16:32;11.10;99.90
46900;DHT22;32647;49.382;7.078;2022-08-21T05:19:19;11.10;99.90
46900;DHT22;32647;49.382;7.078;2022-08-21T05:22:05;11.20;99.90
46900;DHT22;32647;49.382;7.078;2022-08-21T05:24:51;11.20;99.90
46900;DHT22;32647;49.382;7.078;2022-08-21T05:27:38;11.30;99.90
46900;DHT22;32647;49.382;7.078;2022-08-21T05:30:24;11.40;99.90
46900;DHT22;32647;49.382;7.078;2022-08-21T05:33:10;11.50;99.90
46900;DHT22;32647;49.382;7.078;2022-08-21T05:35:56;11.60;99.90
46900;DHT22;32647;49.382;7.078;2022-08-21T05:38:42;11.70;99.90
46900;DHT22;32647;49.382;7.078;2022-08-21T05:41:29;11.70;99.90
46900;DHT22;32647;49.382;7.078;2022-08-21T05:44:15;11.80;99.90
46900;DHT22;32647;49.382;7.078;2022-08-21T05:47:09;11.80;99.90
46900;DHT22;32647;49.382;7.078;2022-08-21T05:49:55;11.90;99.90
46900;DHT22;32647;49.382;7.078;2022-08-21T05:52:41;12.00;99.90
46900;DHT22;32647;49.382;7.078;2022-08-21T05:55:27;12.10;99.90
46900;DHT22;32647;49.382;7.078;2022-08-21T05:58:15;12.20;99.90
46900;DHT22;32647;49.382;7.078;2022-08-21T06:01:02;12.30;99.90
46900;DHT22;32647;49.382;7.078;2022-08-21T06:03:48;12.50;99.90
46900;DHT22;32647;49.382;7.078;2022-08-21T06:06:34;12.50;99.90
46900;DHT22;32647;49.382;7.078;2022-08-21T06:09:20;12.70;99.90
46900;DHT22;32647;49.382;7.078;2022-08-21T06:12:08;12.90;99.90
46900;DHT22;32647;49.382;7.078;2022-08-21T06:14:55;13.00;99.90
46900;DHT22;32647;49.382;7.078;2022-08-21T06:17:41;13.10;99.90
46900;DHT22;32647;49.382;7.078;2022-08-21T06:20:27;13.30;99.90
46900;DHT22;32647;49.382;7.078;2022-08-21T06:23:13;13.30;99.90
46900;DHT22;32647;49.382;7.078;2022-08-21T06:26:00;13.40;99.90
46900;DHT22;32647;49.382;7.078;2022-08-21T06:28:46;13.50;99.90
46900;DHT22;32647;49.382;7.078;2022-08-21T06:31:32;13.70;99.90
46900;DHT22;32647;49.382;7.078;2022-08-21T06:34:18;13.80;99.90
46900;DHT22;32647;49.382;7.078;2022-08-21T06:37:04;14.00;99.90
46900;DHT22;32647;49.382;7.078;2022-08-21T06:39:50;14.10;99.90
46900;DHT22;32647;49.382;7.078;2022-08-21T06:42:36;14.30;99.90
46900;DHT22;32647;49.382;7.078;2022-08-21T06:45:22;14.50;99.90
46900;DHT22;32647;49.382;7.078;2022-08-21T06:48:08;14.70;99.90
46900;DHT22;32647;49.382;7.078;2022-08-21T06:50:55;14.90;99.90
46900;DHT22;32647;49.382;7.078;2022-08-21T06:53:41;15.10;99.90
46900;DHT22;32647;49.382;7.078;2022-08-21T06:56:27;15.30;99.90
46900;DHT22;32647;49.382;7.078;2022-08-21T06:59:13;15.40;99.80
46900;DHT22;32647;49.382;7.078;2022-08-21T07:02:00;15.60;99.90
46900;DHT22;32647;49.382;7.078;2022-08-21T07:04:45;15.80;99.90
46900;DHT22;32647;49.382;7.078;2022-08-21T07:07:31;15.90;98.50
46900;DHT22;32647;49.382;7.078;2022-08-21T07:10:17;16.10;95.30
46900;DHT22;32647;49.382;7.078;2022-08-21T07:13:03;16.20;93.80
46900;DHT22;32647;49.382;7.078;2022-08-21T07:15:49;16.30;94.10
46900;DHT22;32647;49.382;7.078;2022-08-21T07:18:36;16.40;93.10
46900;DHT22;32647;49.382;7.078;2022-08-21T07:21:22;16.60;92.30
46900;DHT22;32647;49.382;7.078;2022-08-21T07:24:11;16.80;90.90
46900;DHT22;32647;49.382;7.078;2022-08-21T07:26:57;16.90;90.90
46900;DHT22;32647;49.382;7.078;2022-08-21T07:29:43;17.20;53.90
46900;DHT22;32647;49.382;7.078;2022-08-21T07:32:29;17.40;99.90
46900;DHT22;32647;49.382;7.078;2022-08-21T07:35:17;17.60;99.90
46900;DHT22;32647;49.382;7.078;2022-08-21T07:38:03;17.60;98.20
46900;DHT22;32647;49.382;7.078;2022-08-21T07:40:51;17.90;99.90
46900;DHT22;32647;49.382;7.078;2022-08-21T07:43:38;18.00;99.90
46900;DHT22;32647;49.382;7.078;2022-08-21T07:46:24;18.30;99.90
46900;DHT22;32647;49.382;7.078;2022-08-21T07:49:11;18.40;99.90
46900;DHT22;32647;49.382;7.078;2022-08-21T07:51:57;18.70;1.00
46900;DHT22;32647;49.382;7.078;2022-08-21T07:54:43;18.80;99.90
46900;DHT22;32647;49.382;7.078;2022-08-21T07:57:29;19.00;99.90
46900;DHT22;32647;49.382;7.078;2022-08-21T08:00:19;19.30;99.90
46900;DHT22;32647;49.382;7.078;2022-08-21T08:03:05;19.50;99.90
46900;DHT22;32647;49.382;7.078;2022-08-21T08:05:51;19.60;91.90
46900;DHT22;32647;49.382;7.078;2022-08-21T08:08:38;19.70;6.80
46900;DHT22;32647;49.382;7.078;2022-08-21T08:11:24;19.90;99.90
46900;DHT22;32647;49.382;7.078;2022-08-21T08:14:10;20.10;99.90
46900;DHT22;32647;49.382;7.078;2022-08-21T08:16:56;20.30;99.90
46900;DHT22;32647;49.382;7.078;2022-08-21T08:19:42;20.50;85.80
46900;DHT22;32647;49.382;7.078;2022-08-21T08:22:29;20.60;99.90
46900;DHT22;32647;49.382;7.078;2022-08-21T08:25:16;20.70;88.00
46900;DHT22;32647;49.382;7.078;2022-08-21T08:28:04;21.00;62.90
46900;DHT22;32647;49.382;7.078;2022-08-21T08:30:50;21.00;14.30
46900;DHT22;32647;49.382;7.078;2022-08-21T08:33:37;21.20;23.30
46900;DHT22;32647;49.382;7.078;2022-08-21T08:36:32;21.20;1.00
46900;DHT22;32647;49.382;7.078;2022-08-21T08:39:19;21.50;1.00
46900;DHT22;32647;49.382;7.078;2022-08-21T08:42:14;21.70;1.00
46900;DHT22;32647;49.382;7.078;2022-08-21T08:45:15;21.80;1.00
46900;DHT22;32647;49.382;7.078;2022-08-21T08:48:05;22.00;1.00
46900;DHT22;32647;49.382;7.078;2022-08-21T08:50:55;22.20;1.00
46900;DHT22;32647;49.382;7.078;2022-08-21T08:53:52;22.00;1.00
46900;DHT22;32647;49.382;7.078;2022-08-21T08:56:41;21.90;1.00
46900;DHT22;32647;49.382;7.078;2022-08-21T08:59:38;22.10;1.00
46900;DHT22;32647;49.382;7.078;2022-08-21T09:02:25;22.40;1.00
46900;DHT22;32647;49.382;7.078;2022-08-21T09:05:27;22.70;1.00
46900;DHT22;32647;49.382;7.078;2022-08-21T09:11:37;23.20;99.90
46900;DHT22;32647;49.382;7.078;2022-08-21T09:14:51;23.40;99.90
46900;DHT22;32647;49.382;7.078;2022-08-21T09:26:57;23.60;99.90
46900;DHT22;32647;49.382;7.078;2022-08-21T09:29:49;23.80;99.90
46900;DHT22;32647;49.382;7.078;2022-08-21T09:32:38;24.20;99.90
46900;DHT22;32647;49.382;7.078;2022-08-21T09:35:25;24.40;99.90
46900;DHT22;32647;49.382;7.078;2022-08-21T09:38:27;24.60;99.90
46900;DHT22;32647;49.382;7.078;2022-08-21T09:41:14;24.50;99.90
46900;DHT22;32647;49.382;7.078;2022-08-21T09:44:01;24.10;99.90
46900;DHT22;32647;49.382;7.078;2022-08-21T09:46:51;24.20;99.90
46900;DHT22;32647;49.382;7.078;2022-08-21T09:49:40;24.60;99.90
46900;DHT22;32647;49.382;7.078;2022-08-21T09:52:26;24.60;99.90
46900;DHT22;32647;49.382;7.078;2022-08-21T09:55:20;24.50;99.90
46900;DHT22;32647;49.382;7.078;2022-08-21T09:58:33;24.30;99.90
46900;DHT22;32647;49.382;7.078;2022-08-21T10:01:23;24.30;99.90
46900;DHT22;32647;49.382;7.078;2022-08-21T10:04:10;24.70;99.90
46900;DHT22;32647;49.382;7.078;2022-08-21T10:07:13;24.90;99.90
46900;DHT22;32647;49.382;7.078;2022-08-21T10:10:06;25.20;99.90
46900;DHT22;32647;49.382;7.078;2022-08-21T10:13:04;25.60;99.90
46900;DHT22;32647;49.382;7.078;2022-08-21T10:19:13;24.60;99.90
46900;DHT22;32647;49.382;7.078;2022-08-21T10:22:58;24.90;99.90
46900;DHT22;32647;49.382;7.078;2022-08-21T10:25:21;25.20;99.90
46900;DHT22;32647;49.382;7.078;2022-08-21T10:28:32;25.50;99.90
46900;DHT22;32647;49.382;7.078;2022-08-21T10:31:50;25.30;99.90
46900;DHT22;32647;49.382;7.078;2022-08-21T10:43:52;26.00;99.90
46900;DHT22;32647;49.382;7.078;2022-08-21T10:47:00;25.70;99.90
46900;DHT22;32647;49.382;7.078;2022-08-21T10:49:52;25.90;99.90
46900;DHT22;32647;49.382;7.078;2022-08-21T10:53:15;25.70;99.90
46900;DHT22;32647;49.382;7.078;2022-08-21T10:56:19;26.30;99.90
46900;DHT22;32647;49.382;7.078;2022-08-21T10:59:28;26.40;99.90
46900;DHT22;32647;49.382;7.078;2022-08-21T11:02:21;26.50;99.90
46900;DHT22;32647;49.382;7.078;2022-08-21T11:08:15;26.50;99.90
46900;DHT22;32647;49.382;7.078;2022-08-21T11:14:00;27.70;99.90
46900;DHT22;32647;49.382;7.078;2022-08-21T11:16:58;27.40;99.90
46900;DHT22;32647;49.382;7.078;2022-08-21T11:19:53;27.10;99.90
46900;DHT22;32647;49.382;7.078;2022-08-21T11:22:49;26.70;99.90
46900;DHT22;32647;49.382;7.078;2022-08-21T11:26:24;27.70;99.90
46900;DHT22;32647;49.382;7.078;2022-08-21T11:29:00;28.20;99.90
46900;DHT22;32647;49.382;7.078;2022-08-21T11:32:02;27.90;99.90
46900;DHT22;32647;49.382;7.078;2022-08-21T11:38:35;28.90;99.90
46900;DHT22;32647;49.382;7.078;2022-08-21T11:47:54;27.60;99.90
46900;DHT22;32647;49.382;7.078;2022-08-21T11:50:43;27.60;99.90
46900;DHT22;32647;49.382;7.078;2022-08-21T11:53:39;27.10;99.90
46900;DHT22;32647;49.382;7.078;2022-08-21T11:56:38;27.60;99.90
46900;DHT22;32647;49.382;7.078;2022-08-21T11:59:43;27.50;99.90
46900;DHT22;32647;49.382;7.078;2022-08-21T12:02:36;27.90;99.90
46900;DHT22;32647;49.382;7.078;2022-08-21T12:05:31;27.80;99.90
46900;DHT22;32647;49.382;7.078;2022-08-21T12:08:32;27.90;99.90
46900;DHT22;32647;49.382;7.078;2022-08-21T12:16:50;27.80;99.90
46900;DHT22;32647;49.382;7.078;2022-08-21T12:19:36;27.90;99.90
46900;DHT22;32647;49.382;7.078;2022-08-21T12:22:37;28.00;99.90
46900;DHT22;32647;49.382;7.078;2022-08-21T12:25:23;28.60;99.90
46900;DHT22;32647;49.382;7.078;2022-08-21T12:28:15;28.50;99.90
46900;DHT22;32647;49.382;7.078;2022-08-21T12:31:01;28.50;99.90
46900;DHT22;32647;49.382;7.078;2022-08-21T12:34:02;28.40;99.90
46900;DHT22;32647;49.382;7.078;2022-08-21T12:36:59;28.70;99.90
46900;DHT22;32647;49.382;7.078;2022-08-21T12:39:48;28.40;99.90
46900;DHT22;32647;49.382;7.078;2022-08-21T12:42:41;28.60;99.90
46900;DHT22;32647;49.382;7.078;2022-08-21T12:45:34;28.50;99.90
46900;DHT22;32647;49.382;7.078;2022-08-21T12:51:25;29.10;99.90
46900;DHT22;32647;49.382;7.078;2022-08-21T12:54:23;28.50;99.90
46900;DHT22;32647;49.382;7.078;2022-08-21T12:57:25;28.30;99.90
46900;DHT22;32647;49.382;7.078;2022-08-21T13:00:13;28.70;99.90
46900;DHT22;32647;49.382;7.078;2022-08-21T13:03:00;28.70;99.90
46900;DHT22;32647;49.382;7.078;2022-08-21T13:05:46;29.10;99.90
46900;DHT22;32647;49.382;7.078;2022-08-21T13:08:35;30.00;99.90
46900;DHT22;32647;49.382;7.078;2022-08-21T13:11:22;29.40;99.90
46900;DHT22;32647;49.382;7.078;2022-08-21T13:14:41;29.50;99.90
46900;DHT22;32647;49.382;7.078;2022-08-21T13:17:27;30.20;99.90
46900;DHT22;32647;49.382;7.078;2022-08-21T13:20:26;30.10;99.90
46900;DHT22;32647;49.382;7.078;2022-08-21T13:23:22;30.10;99.90
46900;DHT22;32647;49.382;7.078;2022-08-21T13:26:17;29.50;99.90
46900;DHT22;32647;49.382;7.078;2022-08-21T13:31:54;28.90;99.90
46900;DHT22;32647;49.382;7.078;2022-08-21T13:34:40;29.70;99.90
46900;DHT22;32647;49.382;7.078;2022-08-21T13:37:26;29.80;99.90
46900;DHT22;32647;49.382;7.078;2022-08-21T13:40:23;29.40;99.90
46900;DHT22;32647;49.382;7.078;2022-08-21T13:43:14;29.20;99.90
46900;DHT22;32647;49.382;7.078;2022-08-21T13:46:07;29.70;99.90
46900;DHT22;32647;49.382;7.078;2022-08-21T13:48:56;29.30;99.90
46900;DHT22;32647;49.382;7.078;2022-08-21T13:51:44;30.10;99.90
46900;DHT22;32647;49.382;7.078;2022-08-21T13:54:39;31.40;99.90
46900;DHT22;32647;49.382;7.078;2022-08-21T13:57:32;31.70;99.90
46900;DHT22;32647;49.382;7.078;2022-08-21T14:00:26;31.80;99.90
46900;DHT22;32647;49.382;7.078;2022-08-21T14:03:41;31.80;99.90
46900;DHT22;32647;49.382;7.078;2022-08-21T14:06:34;30.90;99.90
46900;DHT22;32647;49.382;7.078;2022-08-21T14:09:34;30.50;99.90
46900;DHT22;32647;49.382;7.078;2022-08-21T14:12:28;30.10;99.90
46900;DHT22;32647;49.382;7.078;2022-08-21T14:15:17;30.90;99.90
46900;DHT22;32647;49.382;7.078;2022-08-21T14:18:16;30.50;99.90
46900;DHT22;32647;49.382;7.078;2022-08-21T14:21:07;30.60;99.90
46900;DHT22;32647;49.382;7.078;2022-08-21T14:24:09;31.00;99.90
46900;DHT22;32647;49.382;7.078;2022-08-21T14:27:02;31.30;99.90
46900;DHT22;32647;49.382;7.078;2022-08-21T14:29:48;31.60;99.90
46900;DHT22;32647;49.382;7.078;2022-08-21T14:32:40;31.20;99.90
46900;DHT22;32647;49.382;7.078;2022-08-21T14:35:26;31.20;99.90
46900;DHT22;32647;49.382;7.078;2022-08-21T14:38:17;30.80;99.90
46900;DHT22;32647;49.382;7.078;2022-08-21T14:41:16;30.70;99.90
46900;DHT22;32647;49.382;7.078;2022-08-21T14:44:04;30.70;99.90
46900;DHT22;32647;49.382;7.078;2022-08-21T14:46:51;31.30;99.90
46900;DHT22;32647;49.382;7.078;2022-08-21T14:49:37;31.60;99.90
46900;DHT22;32647;49.382;7.078;2022-08-21T14:52:23;30.30;99.90
46900;DHT22;32647;49.382;7.078;2022-08-21T14:55:10;29.20;99.90
46900;DHT22;32647;49.382;7.078;2022-08-21T14:58:00;28.80;99.90
46900;DHT22;32647;49.382;7.078;2022-08-21T15:00:46;28.50;99.90
46900;DHT22;32647;49.382;7.078;2022-08-21T15:03:33;28.10;99.90
46900;DHT22;32647;49.382;7.078;2022-08-21T15:06:19;28.80;99.90
46900;DHT22;32647;49.382;7.078;2022-08-21T15:09:06;28.60;99.90
46900;DHT22;32647;49.382;7.078;2022-08-21T15:11:56;28.50;99.90
46900;DHT22;32647;49.382;7.078;2022-08-21T15:14:43;28.90;99.90
46900;DHT22;32647;49.382;7.078;2022-08-21T15:17:29;28.70;99.90
46900;DHT22;32647;49.382;7.078;2022-08-21T15:20:15;28.80;99.90
46900;DHT22;32647;49.382;7.078;2022-08-21T15:23:01;28.40;99.90
46900;DHT22;32647;49.382;7.078;2022-08-21T15:25:48;28.50;99.90
46900;DHT22;32647;49.382;7.078;2022-08-21T15:28:35;28.20;99.90
46900;DHT22;32647;49.382;7.078;2022-08-21T15:31:22;28.70;99.90
46900;DHT22;32647;49.382;7.078;2022-08-21T15:34:08;29.00;99.90
46900;DHT22;32647;49.382;7.078;2022-08-21T15:36:55;28.10;99.90
46900;DHT22;32647;49.382;7.078;2022-08-21T15:39:41;28.40;99.90
46900;DHT22;32647;49.382;7.078;2022-08-21T15:42:27;28.20;99.90
46900;DHT22;32647;49.382;7.078;2022-08-21T15:45:14;28.30;99.90
46900;DHT22;32647;49.382;7.078;2022-08-21T15:48:00;27.80;99.90
46900;DHT22;32647;49.382;7.078;2022-08-21T15:50:47;27.40;99.90
46900;DHT22;32647;49.382;7.078;2022-08-21T15:53:33;27.30;99.90
46900;DHT22;32647;49.382;7.078;2022-08-21T15:56:33;27.00;99.90
46900;DHT22;32647;49.382;7.078;2022-08-21T15:59:21;26.90;99.90
46900;DHT22;32647;49.382;7.078;2022-08-21T16:02:17;26.50;99.90
46900;DHT22;32647;49.382;7.078;2022-08-21T16:05:09;26.40;99.90
46900;DHT22;32647;49.382;7.078;2022-08-21T16:07:57;26.30;99.90
46900;DHT22;32647;49.382;7.078;2022-08-21T16:10:45;26.20;99.90
46900;DHT22;32647;49.382;7.078;2022-08-21T16:13:36;26.10;99.90
46900;DHT22;32647;49.382;7.078;2022-08-21T16:16:24;26.10;99.90
46900;DHT22;32647;49.382;7.078;2022-08-21T16:19:11;25.90;99.90
46900;DHT22;32647;49.382;7.078;2022-08-21T16:21:58;25.80;99.90
46900;DHT22;32647;49.382;7.078;2022-08-21T16:24:44;25.80;99.90
46900;DHT22;32647;49.382;7.078;2022-08-21T16:27:34;25.80;99.90
46900;DHT22;32647;49.382;7.078;2022-08-21T16:30:21;25.70;99.90
46900;DHT22;32647;49.382;7.078;2022-08-21T16:33:13;25.70;99.90
46900;DHT22;32647;49.382;7.078;2022-08-21T16:36:06;25.70;99.90
46900;DHT22;32647;49.382;7.078;2022-08-21T16:38:53;25.70;99.90
46900;DHT22;32647;49.382;7.078;2022-08-21T16:41:39;26.00;99.90
46900;DHT22;32647;49.382;7.078;2022-08-21T16:44:25;26.40;99.90
46900;DHT22;32647;49.382;7.078;2022-08-21T16:47:11;26.50;99.90
46900;DHT22;32647;49.382;7.078;2022-08-21T16:49:57;26.40;99.90
46900;DHT22;32647;49.382;7.078;2022-08-21T16:52:43;26.20;99.90
46900;DHT22;32647;49.382;7.078;2022-08-21T16:55:30;26.00;99.90
46900;DHT22;32647;49.382;7.078;2022-08-21T16:58:20;25.90;99.90
46900;DHT22;32647;49.382;7.078;2022-08-21T17:01:11;25.90;99.90
46900;DHT22;32647;49.382;7.078;2022-08-21T17:03:58;25.90;99.90
46900;DHT22;32647;49.382;7.078;2022-08-21T17:09:20;25.80;99.90
46900;DHT22;32647;49.382;7.078;2022-08-21T17:12:06;25.80;99.90
46900;DHT22;32647;49.382;7.078;2022-08-21T17:14:53;25.70;99.90
46900;DHT22;32647;49.382;7.078;2022-08-21T17:17:39;25.70;99.90
46900;DHT22;32647;49.382;7.078;2022-08-21T17:20:25;25.90;99.90
46900;DHT22;32647;49.382;7.078;2022-08-21T17:23:13;25.80;99.90
46900;DHT22;32647;49.382;7.078;2022-08-21T17:26:01;25.80;99.90
46900;DHT22;32647;49.382;7.078;2022-08-21T17:28:47;25.80;99.90
46900;DHT22;32647;49.382;7.078;2022-08-21T17:31:33;25.80;99.90
46900;DHT22;32647;49.382;7.078;2022-08-21T17:34:19;25.70;99.90
46900;DHT22;32647;49.382;7.078;2022-08-21T17:37:05;25.60;99.90
46900;DHT22;32647;49.382;7.078;2022-08-21T17:39:51;25.50;99.90
46900;DHT22;32647;49.382;7.078;2022-08-21T17:42:42;25.40;99.90
46900;DHT22;32647;49.382;7.078;2022-08-21T17:45:28;25.30;99.90
46900;DHT22;32647;49.382;7.078;2022-08-21T17:48:15;25.40;99.90
46900;DHT22;32647;49.382;7.078;2022-08-21T17:51:01;25.20;99.90
46900;DHT22;32647;49.382;7.078;2022-08-21T17:53:47;25.20;99.90
46900;DHT22;32647;49.382;7.078;2022-08-21T17:56:35;25.20;99.90
46900;DHT22;32647;49.382;7.078;2022-08-21T17:59:22;25.10;99.90
46900;DHT22;32647;49.382;7.078;2022-08-21T18:02:09;25.00;99.90
46900;DHT22;32647;49.382;7.078;2022-08-21T18:04:59;24.90;99.90
46900;DHT22;32647;49.382;7.078;2022-08-21T18:07:45;24.80;99.90
46900;DHT22;32647;49.382;7.078;2022-08-21T18:10:31;24.70;99.90
46900;DHT22;32647;49.382;7.078;2022-08-21T18:13:29;24.60;99.90
46900;DHT22;32647;49.382;7.078;2022-08-21T18:16:16;24.40;99.90
46900;DHT22;32647;49.382;7.078;2022-08-21T18:19:08;24.30;99.90
46900;DHT22;32647;49.382;7.078;2022-08-21T18:21:58;24.10;99.90
46900;DHT22;32647;49.382;7.078;2022-08-21T18:24:47;24.00;99.90
46900;DHT22;32647;49.382;7.078;2022-08-21T18:27:33;24.00;99.90
46900;DHT22;32647;49.382;7.078;2022-08-21T18:30:21;23.80;99.90
46900;DHT22;32647;49.382;7.078;2022-08-21T18:33:08;23.50;99.90
46900;DHT22;32647;49.382;7.078;2022-08-21T18:35:56;23.20;99.90
46900;DHT22;32647;49.382;7.078;2022-08-21T18:38:42;23.00;99.90
46900;DHT22;32647;49.382;7.078;2022-08-21T18:41:31;22.80;99.90
46900;DHT22;32647;49.382;7.078;2022-08-21T18:44:21;22.60;99.90
46900;DHT22;32647;49.382;7.078;2022-08-21T18:47:12;22.50;99.90